Time;durP1;ratioP1;P1;durP2;ratioP2;P2;SDS_P1;SDS_P2;PMS_P1;PMS_P2;Temp;Humidity;BMP_temperature;BMP_pressure;BME280_temperature;BME280_humidity;BME280_pressure;Samples;Min_cycle;Max_cycle;Signal;HPM_P1;HPM_P2
2022/08/12 00:43:22;;;;;;;6.10;5.60;;;26.20;43.20;;;;;;5120063;28;20462;-84
2022/08/12 00:48:37;;;;;;;5.90;5.40;;;26.20;43.60;;;;;;5114287;28;20432;-85
2022/08/12 00:51:05;;;;;;;5.50;5.10;;;26.20;43.70;;;;;;5117968;28;20438;-83
2022/08/12 00:53:33;;;;;;;5.80;5.40;;;26.10;43.30;;;;;;5107498;28;20542;-83
2022/08/12 00:56:00;;;;;;;8.13;6.00;;;26.10;43.60;;;;;;5101908;28;20489;-82
2022/08/12 00:58:30;;;;;;;6.70;6.20;;;26.00;43.70;;;;;;5114987;28;20438;-84
2022/08/12 01:01:01;;;;;;;6.57;5.97;;;26.00;44.20;;;;;;5087450;28;20465;-82
2022/08/12 01:12:04;;;;;;;7.50;6.80;;;25.60;45.00;;;;;;5114338;28;21048;-84
2022/08/12 01:14:31;;;;;;;5.90;5.40;;;25.60;44.90;;;;;;5102722;28;20467;-85
2022/08/12 01:16:59;;;;;;;7.20;6.20;;;25.60;44.80;;;;;;5131649;28;20741;-88
2022/08/12 01:19:26;;;;;;;6.50;5.73;;;25.60;44.90;;;;;;5133363;28;20518;-87
2022/08/12 01:22:04;;;;;;;6.67;6.07;;;25.40;45.10;;;;;;5128764;28;20442;-87
2022/08/12 01:24:46;;;;;;;6.07;5.57;;;25.30;45.40;;;;;;5122328;28;20465;-83
2022/08/12 01:27:14;;;;;;;6.63;6.13;;;25.30;45.40;;;;;;5121228;28;20433;-81
2022/08/12 01:29:43;;;;;;;6.80;6.07;;;25.40;45.30;;;;;;5115445;28;20431;-83
2022/08/12 01:32:14;;;;;;;6.13;5.73;;;25.50;45.00;;;;;;5104977;28;20445;-82
2022/08/12 01:34:53;;;;;;;7.00;6.40;;;25.40;45.00;;;;;;5106354;28;20462;-84
2022/08/12 01:37:24;;;;;;;6.40;5.87;;;25.40;45.20;;;;;;5110219;28;20521;-84
2022/08/12 01:39:57;;;;;;;5.73;5.30;;;25.50;45.10;;;;;;5116818;28;20859;-84
2022/08/12 01:42:51;;;;;;;8.03;6.37;;;25.50;44.80;;;;;;5114581;28;20435;-84
2022/08/12 01:45:23;;;;;;;6.40;5.80;;;25.50;44.50;;;;;;5115001;28;20491;-84
2022/08/12 01:48:23;;;;;;;6.30;5.70;;;25.30;44.70;;;;;;5099034;28;21006;-83
2022/08/12 01:51:03;;;;;;;6.00;5.50;;;25.30;44.70;;;;;;5113447;28;20457;-84
2022/08/12 01:54:03;;;;;;;5.90;5.30;;;25.10;44.80;;;;;;5112013;28;20471;-83
2022/08/12 01:56:47;;;;;;;5.60;5.13;;;25.10;45.00;;;;;;5069439;28;20439;-84
2022/08/12 01:59:58;;;;;;;6.00;5.50;;;25.00;45.10;;;;;;5107221;28;20463;-84
2022/08/12 02:02:39;;;;;;;6.20;5.70;;;25.00;45.70;;;;;;5115689;28;20453;-82
2022/08/12 02:11:30;;;;;;;6.67;6.10;;;25.10;51.70;;;;;;5118759;28;20449;-84
2022/08/12 02:14:05;;;;;;;5.90;5.50;;;25.10;52.60;;;;;;5102408;28;20482;-84
2022/08/12 02:17:14;;;;;;;6.03;5.53;;;25.10;53.20;;;;;;5103111;28;20498;-83
2022/08/12 02:20:07;;;;;;;6.10;5.60;;;25.10;52.60;;;;;;5083210;28;20453;-83
2022/08/12 02:22:41;;;;;;;7.40;6.73;;;25.10;50.90;;;;;;5111404;28;20482;-83
2022/08/12 02:25:33;;;;;;;6.50;5.90;;;25.10;51.30;;;;;;5115651;28;20482;-84
2022/08/12 02:28:01;;;;;;;5.17;4.87;;;25.10;50.40;;;;;;5114953;28;20528;-83
2022/08/12 02:30:33;;;;;;;5.80;5.30;;;25.10;49.00;;;;;;5115145;28;20449;-82
2022/08/12 02:33:09;;;;;;;6.10;5.50;;;25.10;48.10;;;;;;5116949;28;20462;-84
2022/08/12 02:35:38;;;;;;;6.10;5.50;;;25.00;47.80;;;;;;5123714;28;20464;-85
2022/08/12 02:38:08;;;;;;;5.20;4.70;;;24.90;47.70;;;;;;5127451;28;20439;-86
2022/08/12 02:40:39;;;;;;;5.50;5.10;;;24.90;47.90;;;;;;5127034;28;20529;-85
2022/08/12 02:43:26;;;;;;;5.47;4.97;;;24.90;48.00;;;;;;5112387;28;20465;-84
2022/08/12 02:46:08;;;;;;;5.70;5.00;;;24.80;48.00;;;;;;5118205;28;20473;-85
2022/08/12 02:49:01;;;;;;;5.93;5.43;;;25.00;47.50;;;;;;5120191;28;20453;-83
2022/08/12 02:51:31;;;;;;;5.30;4.90;;;24.80;47.60;;;;;;5115102;28;20515;-85
2022/08/12 02:54:03;;;;;;;5.40;5.00;;;24.70;47.90;;;;;;5116395;28;20505;-85
2022/08/12 02:56:39;;;;;;;5.60;5.10;;;24.60;47.70;;;;;;5114535;28;20450;-85
2022/08/12 02:59:10;;;;;;;5.70;5.20;;;24.60;48.30;;;;;;5111327;28;20943;-84
2022/08/12 03:01:46;;;;;;;9.43;5.97;;;24.60;48.60;;;;;;5115499;28;20965;-85
2022/08/12 03:04:34;;;;;;;6.03;5.47;;;24.60;50.10;;;;;;5113615;28;21031;-83
2022/08/12 03:07:09;;;;;;;6.20;5.70;;;24.60;51.40;;;;;;5113875;28;20488;-85
2022/08/12 03:09:48;;;;;;;5.83;5.33;;;24.60;52.00;;;;;;5120852;28;20950;-85
2022/08/12 03:12:36;;;;;;;6.90;6.30;;;24.70;52.70;;;;;;5116429;28;20561;-82
2022/08/12 03:15:17;;;;;;;5.90;5.40;;;24.70;52.70;;;;;;5114494;28;20454;-83
2022/08/12 03:17:47;;;;;;;6.30;5.70;;;24.60;53.20;;;;;;5107212;28;20934;-83
2022/08/12 03:20:42;;;;;;;6.53;5.93;;;24.40;52.70;;;;;;5118645;28;20457;-84
2022/08/12 03:23:12;;;;;;;5.80;5.30;;;24.30;52.70;;;;;;5112658;28;20473;-84
2022/08/12 03:25:43;;;;;;;5.70;5.30;;;24.30;52.90;;;;;;5112413;28;20473;-86
2022/08/12 03:28:48;;;;;;;6.23;5.70;;;24.20;53.50;;;;;;5118532;28;20454;-84
2022/08/12 03:31:04;;;;;;;6.53;6.00;;;24.10;53.70;;;;;;5109397;28;20463;-84
2022/08/12 03:33:43;;;;;;;6.63;6.00;;;24.00;54.20;;;;;;5113429;28;20461;-83
2022/08/12 03:36:19;;;;;;;6.20;5.80;;;24.00;53.40;;;;;;5111376;28;20470;-84
2022/08/12 03:41:40;;;;;;;5.53;5.03;;;24.30;52.10;;;;;;5113752;28;20457;-84
2022/08/12 04:01:12;;;;;;;5.90;5.40;;;24.20;50.20;;;;;;5111936;28;20564;-84
2022/08/12 04:03:52;;;;;;;6.03;5.53;;;24.00;50.50;;;;;;5111482;28;20483;-86
2022/08/12 04:06:27;;;;;;;5.77;5.30;;;23.90;51.10;;;;;;5119700;28;20484;-85
2022/08/12 04:09:00;;;;;;;5.60;5.20;;;23.60;51.30;;;;;;5118457;28;20500;-84
2022/08/12 04:14:19;;;;;;;6.10;5.70;;;23.50;50.80;;;;;;5110534;28;20470;-83
2022/08/12 04:16:50;;;;;;;6.30;5.90;;;23.30;50.90;;;;;;5116837;28;20458;-81
2022/08/12 04:19:18;;;;;;;10.53;6.53;;;23.30;51.00;;;;;;5132596;28;20429;-84
2022/08/12 04:21:45;;;;;;;5.60;5.20;;;23.20;51.00;;;;;;5130249;28;20444;-87
2022/08/12 04:24:30;;;;;;;6.83;5.53;;;23.20;51.60;;;;;;5334936;22;20590;-81
2022/08/12 04:26:58;;;;;;;9.20;6.07;;;23.30;51.70;;;;;;5057079;28;20487;-84
2022/08/12 04:29:25;;;;;;;6.40;5.80;;;23.20;51.80;;;;;;5055862;28;20452;-81
2022/08/12 04:32:14;;;;;;;5.40;5.00;;;23.40;52.10;;;;;;5073708;28;20534;-84
2022/08/12 04:34:42;;;;;;;5.77;5.27;;;23.50;52.10;;;;;;5073546;28;20519;-85
2022/08/12 04:37:11;;;;;;;6.03;5.50;;;23.40;52.30;;;;;;5067247;28;20460;-86
2022/08/12 04:39:41;;;;;;;6.63;6.13;;;23.50;53.00;;;;;;5082523;28;20925;-85
2022/08/12 04:42:08;;;;;;;7.40;5.20;;;23.40;53.20;;;;;;5064687;28;20448;-83
2022/08/12 04:44:36;;;;;;;6.57;5.67;;;23.50;53.60;;;;;;5060535;28;20510;-86
2022/08/12 04:47:10;;;;;;;5.53;5.03;;;23.40;53.50;;;;;;5074355;28;20494;-83
2022/08/12 04:49:41;;;;;;;6.00;5.50;;;23.40;53.70;;;;;;5066217;28;20611;-84
2022/08/12 04:52:09;;;;;;;5.80;5.40;;;23.50;53.80;;;;;;5054731;28;21026;-84
2022/08/12 04:54:37;;;;;;;6.37;5.77;;;23.60;53.00;;;;;;5060716;28;20475;-84
2022/08/12 04:57:08;;;;;;;5.53;5.10;;;23.50;52.70;;;;;;5072973;28;20957;-83
2022/08/12 04:59:35;;;;;;;6.10;5.63;;;23.80;51.80;;;;;;5075938;28;20474;-82
2022/08/12 05:02:09;;;;;;;5.70;5.30;;;23.70;51.70;;;;;;5064177;28;20452;-82
2022/08/12 05:04:42;;;;;;;5.97;5.47;;;23.60;51.50;;;;;;5048986;28;20471;-87
2022/08/12 05:07:13;;;;;;;5.67;5.17;;;23.50;52.70;;;;;;5056831;28;20510;-84
2022/08/12 05:09:39;;;;;;;6.30;5.57;;;23.40;52.80;;;;;;5072716;28;20462;-83
2022/08/12 05:12:38;;;;;;;6.00;5.30;;;23.30;52.80;;;;;;5074440;28;20447;-85
2022/08/12 05:15:06;;;;;;;6.90;5.83;;;23.40;53.30;;;;;;5076122;28;20905;-86
2022/08/12 05:17:38;;;;;;;5.73;5.00;;;23.50;53.80;;;;;;5068122;28;20476;-85
2022/08/12 05:20:08;;;;;;;5.30;4.93;;;23.40;52.60;;;;;;5074376;28;20455;-85
2022/08/12 05:22:35;;;;;;;6.90;5.07;;;23.50;51.50;;;;;;5055906;28;20456;-84
2022/08/12 05:25:08;;;;;;;6.10;5.57;;;23.50;50.90;;;;;;5057898;28;20505;-83
2022/08/12 05:27:40;;;;;;;6.00;5.10;;;23.40;51.00;;;;;;5072207;28;20514;-84
2022/08/12 05:30:21;;;;;;;5.77;5.37;;;23.20;51.30;;;;;;5074194;28;20451;-83
2022/08/12 05:32:54;;;;;;;4.87;4.50;;;23.20;51.40;;;;;;5057667;28;20452;-84
2022/08/12 05:35:23;;;;;;;5.47;5.07;;;23.40;51.00;;;;;;5056417;28;20448;-83
2022/08/12 05:38:54;;;;;;;6.37;5.77;;;23.40;51.00;;;;;;5058521;28;20455;-84
2022/08/12 05:40:40;;;;;;;6.23;5.73;;;23.20;51.10;;;;;;5072521;28;20696;-84
2022/08/12 05:43:13;;;;;;;5.77;5.37;;;23.10;50.90;;;;;;5072305;28;20464;-83
2022/08/12 05:45:40;;;;;;;6.10;5.53;;;23.20;51.30;;;;;;5071829;28;20466;-83
2022/08/12 05:48:11;;;;;;;6.00;5.50;;;23.20;51.30;;;;;;5068466;28;20464;-84
2022/08/12 05:50:38;;;;;;;6.80;5.90;;;23.10;51.80;;;;;;5055255;28;20464;-83
2022/08/12 05:53:05;;;;;;;5.97;5.30;;;23.10;52.10;;;;;;5079282;28;20468;-84
2022/08/12 05:55:36;;;;;;;5.60;5.20;;;23.10;51.80;;;;;;5075421;28;20546;-85
2022/08/12 05:58:09;;;;;;;4.90;4.50;;;23.10;51.60;;;;;;5076776;28;20547;-84
2022/08/12 06:00:41;;;;;;;5.60;5.17;;;23.20;51.00;;;;;;5059059;28;20493;-83
2022/08/12 06:03:16;;;;;;;5.80;5.30;;;23.30;51.00;;;;;;5074142;28;21062;-84
2022/08/12 06:05:50;;;;;;;5.67;5.27;;;23.40;50.70;;;;;;5058684;28;20461;-84
2022/08/12 06:08:24;;;;;;;6.10;5.50;;;23.40;50.80;;;;;;5075804;28;20458;-84
2022/08/12 06:11:00;;;;;;;5.20;4.70;;;23.30;50.70;;;;;;5075168;28;20504;-86
2022/08/12 06:13:38;;;;;;;5.70;5.20;;;23.40;50.70;;;;;;5070314;28;20506;-85
2022/08/12 06:16:23;;;;;;;8.07;6.07;;;23.60;50.80;;;;;;5059296;28;20968;-84
2022/08/12 06:18:55;;;;;;;5.17;4.80;;;23.70;50.10;;;;;;5056339;28;20524;-85
2022/08/12 06:21:27;;;;;;;12.97;5.50;;;23.50;49.80;;;;;;5055687;28;20607;-82
2022/08/12 06:24:00;;;;;;;9.03;5.33;;;23.50;50.00;;;;;;5078972;28;20522;-84
2022/08/12 06:26:38;;;;;;;6.53;5.43;;;23.80;49.90;;;;;;5078400;28;20482;-84
2022/08/12 06:29:18;;;;;;;10.23;4.80;;;26.90;47.30;;;;;;5063228;28;20481;-85
2022/08/12 06:32:01;;;;;;;8.40;4.63;;;30.40;42.50;;;;;;5054537;28;20999;-86
2022/08/12 06:34:33;;;;;;;4.90;4.50;;;33.10;36.50;;;;;;5057849;28;20467;-84
2022/08/12 06:37:26;;;;;;;7.27;4.87;;;33.50;34.90;;;;;;5063683;28;20431;-85
2022/08/12 06:43:40;;;;;;;5.50;5.10;;;29.90;37.30;;;;;;5079388;28;20501;-84
2022/08/12 06:46:35;;;;;;;5.37;4.97;;;28.00;40.40;;;;;;5072182;28;20532;-85
2022/08/12 06:49:03;;;;;;;5.60;4.80;;;27.00;42.40;;;;;;5059805;28;20446;-84
2022/08/12 06:51:32;;;;;;;6.33;5.20;;;26.30;43.90;;;;;;5080685;28;20451;-84
2022/08/12 06:54:06;;;;;;;5.93;5.03;;;25.90;44.60;;;;;;5071443;28;20568;-84
2022/08/12 06:56:35;;;;;;;5.17;4.63;;;25.50;45.60;;;;;;5074507;28;20931;-85
2022/08/12 06:59:23;;;;;;;4.80;4.40;;;25.50;45.90;;;;;;5065153;28;20447;-84
2022/08/12 07:01:57;;;;;;;5.47;5.00;;;25.20;46.40;;;;;;5058364;28;20501;-85
2022/08/12 07:04:26;;;;;;;9.13;4.60;;;25.30;46.80;;;;;;5050421;28;20892;-85
2022/08/12 07:07:11;;;;;;;10.30;4.73;;;25.60;46.00;;;;;;5074254;28;20468;-84
2022/08/12 07:09:49;;;;;;;6.30;4.20;;;25.70;45.70;;;;;;5062344;28;20528;-85
2022/08/12 07:12:23;;;;;;;5.03;4.60;;;25.70;45.70;;;;;;5082186;28;20509;-82
2022/08/12 07:14:58;;;;;;;5.20;4.30;;;25.80;45.80;;;;;;5066362;28;20463;-86
2022/08/12 07:17:35;;;;;;;4.70;4.30;;;26.00;45.60;;;;;;5074474;28;20453;-83
2022/08/12 07:20:11;;;;;;;4.77;4.20;;;26.30;45.30;;;;;;5064169;28;20462;-83
2022/08/12 07:23:01;;;;;;;4.63;4.23;;;26.40;44.70;;;;;;5063599;28;20456;-85
2022/08/12 07:25:33;;;;;;;4.43;4.13;;;26.70;44.60;;;;;;5064789;28;20865;-85
2022/08/12 07:28:19;;;;;;;5.00;4.60;;;27.50;43.70;;;;;;5064304;28;20482;-85
2022/08/12 07:30:48;;;;;;;4.40;3.97;;;28.30;41.70;;;;;;5075218;28;20519;-85
2022/08/12 07:33:23;;;;;;;4.10;3.80;;;30.20;39.30;;;;;;5056250;28;20468;-84
2022/08/12 07:35:52;;;;;;;3.87;3.57;;;32.20;36.60;;;;;;5080747;28;20432;-85
2022/08/12 07:38:26;;;;;;;4.97;4.10;;;33.70;34.80;;;;;;5058509;28;20451;-84
2022/08/12 07:41:10;;;;;;;4.43;4.03;;;34.70;33.40;;;;;;5081533;28;20483;-84
2022/08/12 07:43:59;;;;;;;4.20;3.80;;;36.00;31.60;;;;;;5080241;28;20479;-85
2022/08/12 07:46:35;;;;;;;3.80;3.40;;;37.10;30.00;;;;;;5057042;28;20479;-86
2022/08/12 07:49:14;;;;;;;4.73;3.10;;;37.90;29.00;;;;;;5078463;28;20451;-86
2022/08/12 07:51:53;;;;;;;2.93;2.70;;;38.60;28.00;;;;;;5073740;28;20446;-84
2022/08/12 07:54:37;;;;;;;3.07;2.80;;;39.70;26.90;;;;;;5055659;28;20520;-84
2022/08/12 07:57:15;;;;;;;3.40;2.70;;;39.40;26.60;;;;;;5080232;28;20470;-85
2022/08/12 07:59:42;;;;;;;3.07;2.87;;;39.70;26.60;;;;;;5074877;28;20446;-86
2022/08/12 08:02:12;;;;;;;5.50;2.97;;;40.60;25.40;;;;;;5063896;28;20459;-86
2022/08/12 08:04:59;;;;;;;3.47;3.17;;;40.40;25.40;;;;;;5068856;28;20484;-85
2022/08/12 08:07:28;;;;;;;3.17;2.97;;;40.40;25.20;;;;;;5062759;28;20538;-85
2022/08/12 08:09:57;;;;;;;3.60;3.13;;;39.90;25.30;;;;;;5071790;28;20444;-86
2022/08/12 08:15:13;;;;;;;2.90;2.70;;;39.80;25.30;;;;;;5091419;28;20444;-83
2022/08/12 08:17:51;;;;;;;2.40;2.30;;;39.80;25.20;;;;;;5096746;28;20451;-84
2022/08/12 08:20:27;;;;;;;2.87;2.67;;;39.20;25.20;;;;;;5095950;28;20517;-86
2022/08/12 08:22:55;;;;;;;2.60;2.20;;;39.50;25.20;;;;;;5088819;28;20416;-83
2022/08/12 08:25:29;;;;;;;3.30;3.00;;;39.70;24.60;;;;;;5086354;28;20440;-86
2022/08/12 08:28:05;;;;;;;2.90;2.70;;;39.00;24.80;;;;;;5081745;28;20474;-85
2022/08/12 08:30:32;;;;;;;2.97;2.77;;;38.40;25.20;;;;;;5076837;28;20454;-84
2022/08/12 08:32:59;;;;;;;2.50;2.40;;;37.70;25.90;;;;;;5059214;28;20475;-83
2022/08/12 08:35:31;;;;;;;4.43;3.30;;;37.40;26.30;;;;;;5059054;28;20543;-84
2022/08/12 08:38:59;;;;;;;4.73;2.53;;;36.80;26.70;;;;;;5061758;28;20459;-84
2022/08/12 08:44:43;;;;;;;2.23;2.10;;;39.20;24.60;;;;;;5072429;28;20459;-85
2022/08/12 08:47:34;;;;;;;2.53;2.33;;;39.80;24.40;;;;;;5053660;28;20484;-86
2022/08/12 08:50:37;;;;;;;2.57;2.47;;;40.00;23.90;;;;;;5046692;28;20454;-85
2022/08/12 08:53:22;;;;;;;2.23;2.13;;;39.80;23.90;;;;;;5066618;28;20563;-84
2022/08/12 08:55:49;;;;;;;3.00;2.80;;;39.40;24.10;;;;;;5056541;28;20440;-85
2022/08/12 08:58:36;;;;;;;2.83;2.63;;;39.50;24.20;;;;;;5079241;28;20521;-82
2022/08/12 09:01:16;;;;;;;2.60;2.40;;;39.30;24.20;;;;;;5061936;28;20815;-84
2022/08/12 09:03:44;;;;;;;3.63;2.33;;;39.00;24.40;;;;;;5050313;28;20463;-83
2022/08/12 09:06:34;;;;;;;2.30;2.20;;;39.30;24.20;;;;;;5064893;28;20431;-84
2022/08/12 09:09:41;;;;;;;2.37;2.17;;;38.70;24.60;;;;;;5060369;28;20447;-83
2022/08/12 09:15:29;;;;;;;1.97;1.87;;;37.70;25.60;;;;;;5069016;28;20435;-88
2022/08/12 09:18:11;;;;;;;2.30;2.10;;;38.60;24.10;;;;;;5059481;28;20440;-85
2022/08/12 09:20:44;;;;;;;5.20;2.20;;;38.60;24.10;;;;;;5058691;28;20446;-85
2022/08/12 09:23:16;;;;;;;1.90;1.80;;;39.00;24.10;;;;;;5072819;28;20489;-86
2022/08/12 09:26:17;;;;;;;2.80;2.00;;;39.20;23.50;;;;;;5064371;28;20872;-83
2022/08/12 09:28:47;;;;;;;2.90;2.70;;;38.70;24.00;;;;;;5047318;28;20997;-83
2022/08/12 09:31:19;;;;;;;2.63;2.00;;;38.00;24.50;;;;;;5042459;28;20475;-83
2022/08/12 09:34:14;;;;;;;3.77;2.00;;;38.70;23.50;;;;;;5070945;28;20464;-84
2022/08/12 09:39:46;;;;;;;2.40;2.20;;;38.10;23.50;;;;;;5071651;28;20506;-85
2022/08/12 09:45:44;;;;;;;2.37;2.20;;;37.80;23.50;;;;;;5087944;28;20475;-87
2022/08/12 09:48:33;;;;;;;2.00;1.90;;;37.10;23.90;;;;;;5065212;28;20585;-82
2022/08/12 09:51:15;;;;;;;1.83;1.73;;;37.20;24.10;;;;;;5075550;28;20454;-82
2022/08/12 09:53:51;;;;;;;2.57;2.37;;;37.00;24.40;;;;;;5057659;28;20480;-83
2022/08/12 09:56:34;;;;;;;2.97;2.00;;;36.70;24.50;;;;;;5047593;28;20515;-84
2022/08/12 09:59:22;;;;;;;2.37;2.20;;;37.20;24.80;;;;;;5074335;28;20964;-83
2022/08/12 10:02:11;;;;;;;2.00;1.90;;;37.80;23.80;;;;;;5053605;28;20508;-85
2022/08/12 10:04:58;;;;;;;1.90;1.80;;;37.90;23.60;;;;;;5065875;28;20467;-85
2022/08/12 10:07:25;;;;;;;4.70;2.23;;;38.10;23.40;;;;;;5060336;28;20482;-85
2022/08/12 10:10:01;;;;;;;2.37;2.20;;;38.10;23.30;;;;;;5061859;28;20480;-85
2022/08/12 10:15:35;;;;;;;1.90;1.80;;;38.10;23.60;;;;;;5058991;28;20420;-85
2022/08/12 10:18:22;;;;;;;3.07;2.47;;;37.80;23.20;;;;;;5074516;28;20471;-83
2022/08/12 10:20:52;;;;;;;1.93;1.83;;;37.50;23.30;;;;;;5069512;28;20482;-84
2022/08/12 10:23:23;;;;;;;2.07;1.97;;;36.40;23.70;;;;;;5060971;28;20729;-85
2022/08/12 10:32:18;;;;;;;2.33;2.13;;;37.40;22.80;;;;;;5066782;28;20439;-86
2022/08/12 10:35:14;;;;;;;2.70;2.23;;;37.10;23.00;;;;;;5054869;28;20452;-82
2022/08/12 10:37:44;;;;;;;2.43;2.10;;;37.00;23.10;;;;;;5069531;28;20511;-84
2022/08/12 10:40:32;;;;;;;3.43;1.90;;;37.10;23.70;;;;;;5063957;28;20442;-85
2022/08/12 10:45:52;;;;;;;2.60;1.97;;;37.70;22.70;;;;;;5077828;28;20519;-85
2022/08/12 10:48:19;;;;;;;2.03;1.80;;;37.80;22.70;;;;;;5061720;28;20551;-84
2022/08/12 10:50:54;;;;;;;2.13;1.90;;;37.10;23.30;;;;;;5048945;28;20439;-86
2022/08/12 10:53:29;;;;;;;1.90;1.80;;;37.60;23.20;;;;;;5059651;28;20466;-88
2022/08/12 10:56:14;;;;;;;2.93;2.00;;;37.20;23.50;;;;;;5066220;28;20451;-87
2022/08/12 10:58:50;;;;;;;2.47;2.10;;;37.70;22.80;;;;;;5053420;28;20443;-88
2022/08/12 11:05:00;;;;;;;1.77;1.67;;;37.50;23.10;;;;;;5069455;28;20479;-85
2022/08/12 11:12:05;;;;;;;1.87;1.77;;;37.20;23.00;;;;;;5059942;28;20423;-87
2022/08/12 11:14:40;;;;;;;4.13;2.30;;;36.70;22.90;;;;;;5024777;28;20492;-88
2022/08/12 11:17:16;;;;;;;1.97;1.87;;;36.30;23.20;;;;;;5032942;28;20462;-87
2022/08/12 11:20:04;;;;;;;2.47;2.23;;;36.50;23.60;;;;;;5059127;28;20443;-87
2022/08/12 11:23:00;;;;;;;1.60;1.43;;;37.50;23.50;;;;;;5071416;28;20444;-88
2022/08/12 11:25:51;;;;;;;1.90;1.80;;;37.20;23.00;;;;;;5066738;28;20924;-87
2022/08/12 11:28:37;;;;;;;2.17;1.83;;;37.20;23.00;;;;;;5064143;28;20497;-87
2022/08/12 11:31:08;;;;;;;2.20;1.87;;;37.40;23.00;;;;;;5061337;28;20975;-87
2022/08/12 11:33:39;;;;;;;2.00;1.80;;;37.90;23.10;;;;;;5075226;28;20453;-88
2022/08/12 11:36:26;;;;;;;2.67;2.10;;;38.60;22.20;;;;;;5067245;28;20437;-87
2022/08/12 11:38:54;;;;;;;2.03;1.80;;;37.70;22.80;;;;;;5063544;28;20459;-87
2022/08/12 11:41:21;;;;;;;2.00;1.87;;;37.90;23.00;;;;;;5062779;28;20960;-89
2022/08/12 11:43:54;;;;;;;2.33;2.13;;;38.20;21.80;;;;;;5063786;28;20466;-88
2022/08/12 11:46:24;;;;;;;1.50;1.40;;;37.70;22.10;;;;;;5079553;28;20459;-87
2022/08/12 11:48:51;;;;;;;1.70;1.60;;;37.70;21.60;;;;;;5061541;28;20876;-86
2022/08/12 11:51:21;;;;;;;2.10;2.00;;;37.10;22.20;;;;;;5080300;28;20474;-88
2022/08/12 11:54:00;;;;;;;1.70;1.60;;;36.70;23.00;;;;;;5044739;28;20518;-86
2022/08/12 11:57:05;;;;;;;1.70;1.60;;;37.30;22.50;;;;;;5070262;28;20550;-87
2022/08/12 11:59:53;;;;;;;1.60;1.50;;;36.80;22.60;;;;;;5045897;28;20436;-85
2022/08/12 12:02:42;;;;;;;1.80;1.70;;;37.00;23.00;;;;;;5065518;28;20424;-85
2022/08/12 12:05:09;;;;;;;3.63;1.73;;;37.50;21.80;;;;;;5064541;28;20968;-86
2022/08/12 12:07:40;;;;;;;2.00;1.90;;;37.50;22.40;;;;;;5054321;28;20486;-86
2022/08/12 12:10:27;;;;;;;1.93;1.83;;;37.40;22.40;;;;;;5069956;28;20431;-83
2022/08/12 12:12:54;;;;;;;1.73;1.63;;;37.00;22.40;;;;;;5066642;28;20443;-84
2022/08/12 12:15:21;;;;;;;2.50;1.90;;;36.80;22.40;;;;;;5079512;28;20507;-85
2022/08/12 12:18:19;;;;;;;3.37;1.80;;;36.50;23.00;;;;;;5059408;28;20440;-86
2022/08/12 12:20:48;;;;;;;1.43;1.33;;;36.70;22.80;;;;;;5071842;28;20458;-84
2022/08/12 12:23:22;;;;;;;1.90;1.80;;;36.60;23.00;;;;;;5050293;28;20466;-85
2022/08/12 12:25:55;;;;;;;2.00;1.90;;;36.80;22.70;;;;;;5074862;28;20449;-85
2022/08/12 12:28:25;;;;;;;1.57;1.47;;;36.80;22.40;;;;;;5087460;28;20480;-86
2022/08/12 12:31:03;;;;;;;1.73;1.63;;;37.10;22.40;;;;;;5096772;28;20469;-86
2022/08/12 12:33:30;;;;;;;2.63;1.40;;;37.10;22.20;;;;;;5082916;28;20473;-86
2022/08/12 12:36:11;;;;;;;1.50;1.40;;;37.20;22.20;;;;;;5084296;28;20442;-87
2022/08/12 12:38:46;;;;;;;1.60;1.50;;;37.30;21.50;;;;;;5093338;28;20435;-86
2022/08/12 12:41:13;;;;;;;1.50;1.40;;;37.10;21.50;;;;;;5096342;28;20446;-87
2022/08/12 12:43:42;;;;;;;3.20;1.63;;;36.50;21.70;;;;;;5096491;28;20703;-87
2022/08/12 12:46:10;;;;;;;1.80;1.60;;;36.00;22.70;;;;;;5086308;28;20462;-84
2022/08/12 12:48:37;;;;;;;1.80;1.70;;;35.80;23.00;;;;;;5072491;28;20889;-84
2022/08/12 12:51:17;;;;;;;1.67;1.57;;;36.10;22.80;;;;;;5078445;28;20903;-85
2022/08/12 13:02:58;;;;;;;1.50;1.40;;;37.50;21.40;;;;;;5010535;28;20462;-85
2022/08/12 13:10:09;;;;;;;;;;;;;;;;;;;;;
2022/08/12 13:12:54;;;;;;;1.47;1.30;;;36.90;21.00;;;;;;4976201;28;20494;-85
2022/08/12 13:20:52;;;;;;;;;;;;;;;;;;;;;
2022/08/12 13:23:47;;;;;;;1.93;1.83;;;37.30;20.90;;;;;;5008675;28;21019;-85
2022/08/12 13:26:56;;;;;;;1.53;1.40;;;36.20;21.10;;;;;;5040673;28;20444;-85
2022/08/12 13:29:41;;;;;;;2.00;1.67;;;36.40;21.40;;;;;;5045296;28;20448;-86
2022/08/12 13:32:11;;;;;;;1.53;1.43;;;36.30;21.50;;;;;;5028098;28;20469;-84
2022/08/12 13:34:53;;;;;;;1.70;1.60;;;36.50;21.40;;;;;;5050374;28;20477;-84
2022/08/12 13:37:29;;;;;;;1.67;1.57;;;36.80;21.10;;;;;;5024027;28;20441;-85
2022/08/12 13:40:10;;;;;;;1.50;1.40;;;37.10;21.10;;;;;;5044040;28;20450;-85
2022/08/12 13:42:40;;;;;;;5.67;5.17;;;36.40;21.10;;;;;;5045844;28;20449;-84
2022/08/12 13:45:11;;;;;;;1.70;1.60;;;36.10;21.60;;;;;;5039142;28;20445;-86
2022/08/12 13:47:58;;;;;;;1.87;1.50;;;36.50;21.50;;;;;;5036402;28;20834;-86
2022/08/12 13:50:31;;;;;;;2.63;1.60;;;36.20;21.40;;;;;;5022040;28;20859;-86
2022/08/12 13:53:04;;;;;;;1.60;1.50;;;36.10;21.50;;;;;;5044353;28;20452;-85
2022/08/12 13:55:31;;;;;;;2.03;1.57;;;36.10;21.80;;;;;;5029764;28;20454;-86
2022/08/12 13:58:00;;;;;;;2.17;1.97;;;36.10;21.90;;;;;;5046688;28;20845;-85
2022/08/12 14:00:32;;;;;;;1.77;1.67;;;35.70;22.10;;;;;;5041664;28;20555;-86
2022/08/12 14:03:13;;;;;;;1.40;1.30;;;35.90;22.20;;;;;;5032578;28;20477;-87
2022/08/12 14:05:43;;;;;;;1.90;1.80;;;36.10;21.80;;;;;;5037369;28;20456;-83
2022/08/12 14:08:14;;;;;;;1.83;1.73;;;36.10;22.60;;;;;;5044533;28;20563;-85
2022/08/12 14:10:52;;;;;;;2.30;1.67;;;36.30;22.30;;;;;;5043466;28;20444;-85
2022/08/12 14:13:29;;;;;;;1.67;1.57;;;36.50;22.10;;;;;;5029552;28;20469;-85
2022/08/12 14:16:17;;;;;;;1.57;1.47;;;36.40;22.30;;;;;;5032287;28;20515;-86
2022/08/12 14:19:07;;;;;;;1.77;1.67;;;36.30;21.90;;;;;;5045179;28;20954;-87
2022/08/12 14:21:35;;;;;;;1.80;1.70;;;36.20;22.30;;;;;;5044429;28;20566;-85
2022/08/12 14:24:23;;;;;;;1.60;1.50;;;36.40;22.20;;;;;;5035906;28;21272;-85
2022/08/12 14:26:53;;;;;;;1.60;1.50;;;36.40;22.30;;;;;;5033816;28;20487;-85
2022/08/12 14:29:22;;;;;;;1.60;1.50;;;36.30;22.10;;;;;;5035202;28;20480;-84
2022/08/12 14:32:06;;;;;;;1.67;1.57;;;35.90;22.30;;;;;;5052811;28;20594;-86
2022/08/12 14:34:33;;;;;;;3.73;1.73;;;35.80;22.70;;;;;;5033421;28;20562;-84
2022/08/12 14:37:01;;;;;;;1.60;1.50;;;35.80;22.80;;;;;;5052704;28;20891;-85
2022/08/12 14:39:27;;;;;;;1.60;1.50;;;35.80;22.80;;;;;;5041549;28;20452;-86
2022/08/12 14:41:54;;;;;;;1.87;1.77;;;35.70;23.00;;;;;;5041426;28;20450;-86
2022/08/12 14:44:27;;;;;;;1.87;1.77;;;35.60;24.20;;;;;;5044796;28;20499;-84
2022/08/12 14:47:13;;;;;;;1.90;1.80;;;35.70;23.80;;;;;;5044721;28;20463;-84
2022/08/12 14:49:44;;;;;;;3.40;2.20;;;35.40;23.70;;;;;;5040146;28;20638;-86
2022/08/12 14:52:29;;;;;;;2.00;1.90;;;35.50;23.60;;;;;;5039952;28;20464;-85
2022/08/12 14:55:20;;;;;;;2.10;1.90;;;35.70;23.00;;;;;;5044588;28;20451;-85
2022/08/12 14:58:09;;;;;;;2.00;1.90;;;35.20;22.70;;;;;;5033821;28;20451;-84
2022/08/12 15:03:32;;;;;;;3.60;1.67;;;35.30;22.60;;;;;;5050664;28;20567;-85
2022/08/12 15:06:15;;;;;;;1.90;1.70;;;35.40;22.80;;;;;;5031080;28;20452;-86
2022/08/12 15:09:04;;;;;;;1.93;1.83;;;35.40;22.10;;;;;;5037511;28;20467;-86
2022/08/12 15:11:34;;;;;;;1.40;1.30;;;35.50;22.30;;;;;;5042845;28;20963;-84
2022/08/12 15:14:14;;;;;;;2.00;1.80;;;35.40;22.50;;;;;;5040007;28;20470;-86
2022/08/12 15:16:41;;;;;;;1.70;1.60;;;35.30;22.40;;;;;;5047780;28;20463;-84
2022/08/12 15:19:11;;;;;;;1.57;1.47;;;35.10;22.80;;;;;;5023084;28;20452;-84
2022/08/12 15:21:39;;;;;;;4.20;1.57;;;34.90;22.70;;;;;;5040463;28;20453;-85
2022/08/12 15:24:26;;;;;;;1.80;1.40;;;34.50;22.70;;;;;;5053903;28;20488;-86
2022/08/12 15:26:57;;;;;;;1.60;1.50;;;34.30;23.10;;;;;;5046716;28;20453;-85
2022/08/12 15:30:02;;;;;;;1.83;1.73;;;34.20;23.30;;;;;;5046889;28;20508;-86
2022/08/12 15:36:11;;;;;;;2.20;1.60;;;34.20;23.40;;;;;;5027947;28;20428;-85
2022/08/12 15:38:38;;;;;;;2.30;1.60;;;34.10;23.40;;;;;;5043683;28;20510;-85
2022/08/12 15:45:38;;;;;;;2.27;1.53;;;33.90;23.50;;;;;;5070367;22;20523;-84
2022/08/12 15:48:14;;;;;;;4.83;2.10;;;34.10;23.80;;;;;;5069926;28;20479;-87
2022/08/12 15:50:48;;;;;;;1.90;1.70;;;34.00;23.90;;;;;;5085142;28;20462;-86
2022/08/12 15:54:03;;;;;;;2.90;1.70;;;34.00;23.80;;;;;;5058246;28;20473;-85
2022/08/12 15:56:18;;;;;;;1.80;1.70;;;33.90;23.50;;;;;;5069040;28;20453;-85
2022/08/12 15:58:51;;;;;;;2.70;1.43;;;33.80;23.30;;;;;;5079541;28;20440;-84
2022/08/12 16:01:34;;;;;;;1.70;1.60;;;33.80;23.30;;;;;;5069100;28;20437;-84
2022/08/12 16:04:42;;;;;;;2.00;1.90;;;33.80;23.60;;;;;;5008123;28;21072;-84
2022/08/12 16:07:09;;;;;;;1.87;1.70;;;33.80;23.50;;;;;;5012686;28;20454;-85
2022/08/12 16:09:36;;;;;;;2.07;1.60;;;33.70;23.70;;;;;;5004616;28;20553;-85